createdAt,value
2023-01-21T00:01:06.530Z,1.80
2023-01-21T00:03:33.715Z,1.80
2023-01-21T00:06:00.603Z,1.80
2023-01-21T00:08:27.841Z,1.80
2023-01-21T00:10:54.741Z,1.80
2023-01-21T00:13:21.542Z,1.90
2023-01-21T00:15:48.477Z,1.90
2023-01-21T00:18:15.436Z,1.90
2023-01-21T00:20:42.185Z,1.90
2023-01-21T00:23:10.893Z,1.90
2023-01-21T00:25:37.775Z,2.00
2023-01-21T00:28:04.633Z,1.90
2023-01-21T00:30:31.530Z,1.90
2023-01-21T00:32:58.378Z,1.90
2023-01-21T00:35:25.111Z,1.90
2023-01-21T00:37:52.512Z,1.90
2023-01-21T00:40:19.436Z,1.90
2023-01-21T00:42:46.280Z,1.90
2023-01-21T00:45:13.214Z,1.90
2023-01-21T00:47:40.339Z,1.80
2023-01-21T00:50:08.858Z,1.80
2023-01-21T00:52:35.790Z,1.90
2023-01-21T00:55:02.542Z,1.80
2023-01-21T00:57:29.259Z,1.80
2023-01-21T00:59:56.437Z,1.80
2023-01-21T01:02:23.144Z,1.70
2023-01-21T01:04:49.872Z,1.70
2023-01-21T01:07:16.749Z,1.70
2023-01-21T01:09:43.549Z,1.70
2023-01-21T01:12:10.327Z,1.70
2023-01-21T01:14:37.265Z,1.70
2023-01-21T01:17:04.825Z,1.70
2023-01-21T01:19:31.595Z,1.70
2023-01-21T01:21:58.437Z,1.70
2023-01-21T01:24:25.282Z,1.70
2023-01-21T01:26:52.045Z,1.70
2023-01-21T01:29:18.854Z,1.70
2023-01-21T01:31:45.674Z,1.70
2023-01-21T01:34:12.532Z,1.70
2023-01-21T01:36:39.305Z,1.60
2023-01-21T01:39:06.024Z,1.70
2023-01-21T01:41:35.085Z,1.70
2023-01-21T01:44:03.495Z,1.70
2023-01-21T01:46:33.011Z,1.70
2023-01-21T01:49:21.499Z,1.70
2023-01-21T01:51:50.784Z,1.60
2023-01-21T01:54:24.502Z,1.60
2023-01-21T01:56:56.365Z,1.50
2023-01-21T01:59:23.447Z,1.50
2023-01-21T02:01:50.324Z,1.50
2023-01-21T02:04:29.585Z,1.50
2023-01-21T02:06:57.947Z,1.50
2023-01-21T02:09:29.939Z,1.50
2023-01-21T02:12:02.118Z,1.50
2023-01-21T02:14:30.576Z,1.50
2023-01-21T02:17:18.803Z,1.40
2023-01-21T02:20:04.360Z,1.40
2023-01-21T02:22:39.954Z,1.40
2023-01-21T02:25:40.711Z,1.40
2023-01-21T02:28:46.579Z,1.40
2023-01-21T02:31:44.233Z,1.40
2023-01-21T02:35:08.221Z,1.30
2023-01-21T02:37:40.587Z,1.30
2023-01-21T02:40:29.010Z,1.30
2023-01-21T02:43:07.613Z,1.20
2023-01-21T02:45:41.810Z,1.20
2023-01-21T02:48:17.001Z,1.20
2023-01-21T02:50:52.548Z,1.20
2023-01-21T02:53:28.347Z,1.20
2023-01-21T02:55:59.148Z,1.20
2023-01-21T02:58:31.628Z,1.20
2023-01-21T03:01:13.616Z,1.20
2023-01-21T03:03:57.603Z,1.10
2023-01-21T03:06:41.178Z,1.10
2023-01-21T03:09:18.378Z,1.10
2023-01-21T03:12:01.993Z,1.10
2023-01-21T03:14:55.367Z,1.00
2023-01-21T03:17:35.738Z,1.00
2023-01-21T03:20:07.804Z,0.90
2023-01-21T03:22:36.146Z,1.00
2023-01-21T03:25:04.294Z,0.90
2023-01-21T03:27:32.952Z,0.90
2023-01-21T03:30:10.320Z,0.90
2023-01-21T03:32:38.346Z,0.90
2023-01-21T03:35:07.479Z,0.80
2023-01-21T03:37:42.200Z,0.80
2023-01-21T03:40:20.659Z,0.80
2023-01-21T03:42:51.160Z,0.80
2023-01-21T03:45:42.832Z,0.80
2023-01-21T03:48:18.604Z,0.80
2023-01-21T03:50:53.294Z,0.70
2023-01-21T03:53:20.145Z,0.70
2023-01-21T03:55:49.591Z,0.70
2023-01-21T03:58:16.352Z,0.70
2023-01-21T04:00:43.186Z,0.70
2023-01-21T04:03:09.925Z,0.70
2023-01-21T04:05:36.762Z,0.60
2023-01-21T04:08:03.649Z,0.60
2023-01-21T04:10:30.432Z,0.60
2023-01-21T04:12:57.184Z,0.60
2023-01-21T04:15:23.918Z,0.60
2023-01-21T04:17:50.657Z,0.60
2023-01-21T04:20:18.809Z,0.60
2023-01-21T04:22:45.694Z,0.50
2023-01-21T04:25:12.637Z,0.50
2023-01-21T04:27:39.372Z,0.50
2023-01-21T04:30:06.929Z,0.50
2023-01-21T04:32:33.803Z,0.50
2023-01-21T04:35:00.539Z,0.50
2023-01-21T04:37:27.356Z,0.50
2023-01-21T04:39:54.111Z,0.40
2023-01-21T04:42:20.838Z,0.40
2023-01-21T04:44:47.655Z,0.40
2023-01-21T04:47:14.430Z,0.40
2023-01-21T04:49:41.169Z,0.30
2023-01-21T04:52:07.992Z,0.30
2023-01-21T04:54:34.782Z,0.30
2023-01-21T04:57:01.607Z,0.30
2023-01-21T04:59:28.327Z,0.30
2023-01-21T05:01:55.112Z,0.30
2023-01-21T05:04:21.884Z,0.30
2023-01-21T05:06:48.745Z,0.20
2023-01-21T05:09:15.662Z,0.30
2023-01-21T05:11:42.437Z,0.20
2023-01-21T05:14:09.514Z,0.20
2023-01-21T05:16:36.411Z,0.20
2023-01-21T05:19:14.562Z,0.20
2023-01-21T05:21:41.338Z,0.20
2023-01-21T05:24:08.132Z,0.20
2023-01-21T05:26:35.553Z,0.10
2023-01-21T05:29:02.366Z,0.10
2023-01-21T05:31:29.199Z,0.10
2023-01-21T05:33:57.041Z,0.10
2023-01-21T05:36:23.956Z,0.10
2023-01-21T05:38:50.761Z,0.10
2023-01-21T05:41:17.892Z,0.00
2023-01-21T05:43:44.730Z,0.00
2023-01-21T05:46:11.624Z,0.00
2023-01-21T05:48:38.446Z,0.00
2023-01-21T05:51:05.445Z,0.00
2023-01-21T05:53:32.255Z,-0.10
2023-01-21T05:55:59.056Z,-0.10
2023-01-21T05:58:26.538Z,-0.10
2023-01-21T06:00:53.692Z,-0.10
2023-01-21T06:03:20.734Z,-0.10
2023-01-21T06:05:49.892Z,-0.10
2023-01-21T06:08:17.167Z,-0.10
2023-01-21T06:10:44.454Z,-0.10
2023-01-21T06:13:13.093Z,-0.10
2023-01-21T06:15:40.052Z,-0.10
2023-01-21T06:18:07.606Z,-0.10
2023-01-21T06:20:34.616Z,-0.10
2023-01-21T06:23:02.452Z,-0.10
2023-01-21T06:25:29.839Z,-0.20
2023-01-21T06:27:57.819Z,-0.20
2023-01-21T06:30:26.002Z,-0.20
2023-01-21T06:32:53.037Z,-0.20
2023-01-21T06:35:20.173Z,-0.20
2023-01-21T06:37:47.212Z,-0.10
2023-01-21T06:40:15.003Z,-0.10
2023-01-21T06:42:45.070Z,-0.10
2023-01-21T06:45:11.832Z,-0.10
2023-01-21T06:47:42.047Z,-0.10
2023-01-21T06:50:11.107Z,-0.10
2023-01-21T06:52:37.911Z,-0.10
2023-01-21T06:55:05.335Z,-0.10
2023-01-21T06:57:32.065Z,-0.10
2023-01-21T06:59:58.799Z,-0.10
2023-01-21T07:02:25.617Z,-0.10
2023-01-21T07:04:52.503Z,-0.10
2023-01-21T07:07:19.302Z,-0.10
2023-01-21T07:09:46.092Z,-0.10
2023-01-21T07:12:13.367Z,-0.10
2023-01-21T07:14:40.177Z,-0.20
2023-01-21T07:17:06.897Z,-0.10
2023-01-21T07:19:33.646Z,-0.10
2023-01-21T07:22:00.617Z,-0.20
2023-01-21T07:24:27.398Z,-0.20
2023-01-21T07:26:54.285Z,-0.10
2023-01-21T07:29:23.173Z,-0.10
2023-01-21T07:31:50.106Z,-0.10
2023-01-21T07:34:16.920Z,-0.10
2023-01-21T07:36:43.645Z,-0.10
2023-01-21T07:39:10.424Z,-0.10
2023-01-21T07:41:37.288Z,-0.10
2023-01-21T07:44:04.016Z,-0.10
2023-01-21T07:46:33.257Z,-0.10
2023-01-21T07:49:00.029Z,-0.10
2023-01-21T07:51:26.775Z,-0.10
2023-01-21T07:53:56.712Z,-0.10
2023-01-21T07:56:25.155Z,0.00
2023-01-21T07:58:52.266Z,0.00
2023-01-21T08:01:19.117Z,0.00
2023-01-21T08:03:45.879Z,0.00
2023-01-21T08:06:12.687Z,0.10
2023-01-21T08:08:39.467Z,0.10
2023-01-21T08:11:06.442Z,0.10
2023-01-21T08:13:33.219Z,0.10
2023-01-21T08:16:00.042Z,0.20
2023-01-21T08:18:26.823Z,0.20
2023-01-21T08:20:58.199Z,0.20
2023-01-21T08:23:26.367Z,0.20
2023-01-21T08:25:53.588Z,0.20
2023-01-21T08:28:20.645Z,0.30
2023-01-21T08:30:47.432Z,0.30
2023-01-21T08:33:14.476Z,0.30
2023-01-21T08:35:41.318Z,0.40
2023-01-21T08:38:08.085Z,0.40
2023-01-21T08:40:34.841Z,0.40
2023-01-21T08:43:03.407Z,0.40
2023-01-21T08:45:30.392Z,0.50
2023-01-21T08:47:57.165Z,0.50
2023-01-21T08:50:24.233Z,0.50
2023-01-21T08:52:55.395Z,0.50
2023-01-21T08:55:25.223Z,0.60
2023-01-21T08:57:53.493Z,0.50
2023-01-21T09:00:21.419Z,0.60
2023-01-21T09:02:50.064Z,0.60
2023-01-21T09:05:18.552Z,0.60
2023-01-21T09:07:45.877Z,0.60
2023-01-21T09:10:13.104Z,0.60
2023-01-21T09:12:42.629Z,0.70
2023-01-21T09:15:09.531Z,0.70
2023-01-21T09:17:36.696Z,0.70
2023-01-21T09:20:03.779Z,0.70
2023-01-21T09:22:30.548Z,0.70
2023-01-21T09:24:57.322Z,0.70
2023-01-21T09:27:32.293Z,0.80
2023-01-21T09:29:59.067Z,0.80
2023-01-21T09:32:26.054Z,0.90
2023-01-21T09:34:52.862Z,0.90
2023-01-21T09:37:19.643Z,0.90
2023-01-21T09:39:47.812Z,1.00
2023-01-21T09:42:25.372Z,1.00
2023-01-21T09:44:54.127Z,1.00
2023-01-21T09:47:33.549Z,1.10
2023-01-21T09:50:16.732Z,1.10
2023-01-21T09:52:45.054Z,1.10
2023-01-21T09:55:20.762Z,1.10
2023-01-21T09:58:08.383Z,1.10
2023-01-21T10:00:41.636Z,1.20
2023-01-21T10:03:35.962Z,1.20
2023-01-21T10:06:38.395Z,1.20
2023-01-21T10:09:23.400Z,1.20
2023-01-21T10:12:25.813Z,1.20
2023-01-21T10:15:12.841Z,1.30
2023-01-21T10:17:51.826Z,1.30
2023-01-21T10:20:53.849Z,1.30
2023-01-21T10:23:43.755Z,1.30
2023-01-21T10:26:13.869Z,1.40
2023-01-21T10:28:44.292Z,1.40
2023-01-21T10:31:24.779Z,1.40
2023-01-21T10:33:52.116Z,1.40
2023-01-21T10:36:42.280Z,1.40
2023-01-21T10:39:27.159Z,1.40
2023-01-21T10:42:29.914Z,1.40
2023-01-21T10:45:19.551Z,1.50
2023-01-21T10:48:12.412Z,1.50
2023-01-21T10:50:57.463Z,1.50
2023-01-21T10:53:56.696Z,1.60
2023-01-21T10:56:29.722Z,1.60
2023-01-21T10:59:06.781Z,1.60
2023-01-21T11:01:40.767Z,1.60
2023-01-21T11:04:15.243Z,1.60
2023-01-21T11:06:44.099Z,1.60
2023-01-21T11:09:14.349Z,1.60
2023-01-21T11:11:42.863Z,2.60
2023-01-21T11:14:10.545Z,4.00
2023-01-21T11:16:43.502Z,3.80
2023-01-21T11:19:17.811Z,3.50
2023-01-21T11:22:22.004Z,3.30
2023-01-21T11:24:51.449Z,3.10
2023-01-21T11:27:27.906Z,2.90
2023-01-21T11:29:54.635Z,2.80
2023-01-21T11:32:23.719Z,2.60
2023-01-21T11:34:53.751Z,2.50
2023-01-21T11:37:26.106Z,2.40
2023-01-21T11:39:59.474Z,2.40
2023-01-21T11:42:26.751Z,2.30
2023-01-21T11:45:01.318Z,2.30
2023-01-21T11:47:28.970Z,2.20
2023-01-21T11:50:03.624Z,2.20
2023-01-21T11:52:30.534Z,2.20
2023-01-21T11:54:57.360Z,2.10
2023-01-21T11:57:30.186Z,2.10
2023-01-21T12:00:07.475Z,2.10
2023-01-21T12:02:39.246Z,2.10
2023-01-21T12:05:26.659Z,2.00
2023-01-21T12:07:54.643Z,2.00
2023-01-21T12:10:27.367Z,2.00
2023-01-21T12:13:12.642Z,2.00
2023-01-21T12:16:04.217Z,2.00
2023-01-21T12:18:55.553Z,2.00
2023-01-21T12:21:43.458Z,1.90
2023-01-21T12:24:36.379Z,1.90
2023-01-21T12:27:40.796Z,1.90
2023-01-21T12:30:27.090Z,1.90
2023-01-21T12:33:13.883Z,1.80
2023-01-21T12:35:52.134Z,1.80
2023-01-21T12:38:34.505Z,1.90
2023-01-21T12:41:15.583Z,1.80
2023-01-21T12:44:02.114Z,1.80
2023-01-21T12:46:44.567Z,1.80
2023-01-21T12:49:20.879Z,1.90
2023-01-21T12:51:53.259Z,1.90
2023-01-21T12:54:38.166Z,1.90
2023-01-21T12:57:19.582Z,1.90
2023-01-21T13:00:15.717Z,1.90
2023-01-21T13:02:49.438Z,1.90
2023-01-21T13:05:43.882Z,1.90
2023-01-21T13:08:43.363Z,1.90
2023-01-21T13:11:27.722Z,1.80
2023-01-21T13:14:26.602Z,1.80
2023-01-21T13:16:59.224Z,1.90
2023-01-21T13:19:26.050Z,1.90
2023-01-21T13:22:04.083Z,1.90
2023-01-21T13:25:01.902Z,1.90
2023-01-21T13:27:39.067Z,1.90
2023-01-21T13:30:33.176Z,1.90
2023-01-21T13:33:24.875Z,1.90
2023-01-21T13:36:02.859Z,1.90
2023-01-21T13:38:35.372Z,1.90
2023-01-21T13:41:14.172Z,1.90
2023-01-21T13:44:01.735Z,1.90
2023-01-21T13:46:40.895Z,1.90
2023-01-21T13:49:13.503Z,1.90
2023-01-21T13:52:20.170Z,1.90
2023-01-21T13:54:46.930Z,1.90
2023-01-21T13:57:24.420Z,1.90
2023-01-21T14:00:19.679Z,1.90
2023-01-21T14:02:57.742Z,1.90
2023-01-21T14:05:49.123Z,1.90
2023-01-21T14:08:41.092Z,1.90
2023-01-21T14:11:26.328Z,1.90
2023-01-21T14:14:16.072Z,1.90
2023-01-21T14:16:45.808Z,1.90
2023-01-21T14:19:46.437Z,1.90
2023-01-21T14:22:34.826Z,1.90
2023-01-21T14:25:20.063Z,1.90
2023-01-21T14:28:13.423Z,1.90
2023-01-21T14:30:49.791Z,1.90
2023-01-21T14:33:23.953Z,1.90
2023-01-21T14:36:06.322Z,1.90
2023-01-21T14:38:43.448Z,1.90
2023-01-21T14:41:11.891Z,1.90
2023-01-21T14:43:40.352Z,1.80
2023-01-21T14:46:30.888Z,1.80
2023-01-21T14:49:06.411Z,1.90
2023-01-21T14:51:36.307Z,1.90
2023-01-21T14:54:11.253Z,1.80
2023-01-21T14:56:38.477Z,1.90
2023-01-21T14:59:06.859Z,1.90
2023-01-21T15:01:48.401Z,1.90
2023-01-21T15:04:27.657Z,1.90
2023-01-21T15:07:00.551Z,1.90
2023-01-21T15:09:32.563Z,1.80
2023-01-21T15:12:03.501Z,1.80
2023-01-21T15:14:39.464Z,1.80
2023-01-21T15:17:46.727Z,1.80
2023-01-21T15:20:51.206Z,1.80
2023-01-21T15:23:29.966Z,1.80
2023-01-21T15:26:19.568Z,1.80
2023-01-21T15:28:53.583Z,1.80
2023-01-21T15:31:20.436Z,1.80
2023-01-21T15:34:09.989Z,1.80
2023-01-21T15:36:57.112Z,1.80
2023-01-21T15:39:33.345Z,1.90
2023-01-21T15:42:32.797Z,1.90
2023-01-21T15:45:21.599Z,1.90
2023-01-21T15:47:48.340Z,1.90
2023-01-21T15:50:35.117Z,1.90
2023-01-21T15:53:15.429Z,1.90
2023-01-21T15:56:06.445Z,1.90
2023-01-21T15:59:10.782Z,1.90
2023-01-21T16:01:39.539Z,1.90
2023-01-21T16:04:18.932Z,1.90
2023-01-21T16:07:04.016Z,1.90
2023-01-21T16:09:54.392Z,1.90
2023-01-21T16:12:41.821Z,1.90
2023-01-21T16:15:11.686Z,1.90
2023-01-21T16:18:07.831Z,1.90
2023-01-21T16:20:35.051Z,1.90
2023-01-21T16:23:06.177Z,1.90
2023-01-21T16:25:46.258Z,1.90
2023-01-21T16:28:13.020Z,1.90
2023-01-21T16:30:39.782Z,1.90
2023-01-21T16:33:16.451Z,1.90
2023-01-21T16:35:47.994Z,1.90
2023-01-21T16:38:24.187Z,1.90
2023-01-21T16:41:12.495Z,1.90
2023-01-21T16:44:12.284Z,1.90
2023-01-21T16:46:41.173Z,1.90
2023-01-21T16:49:17.864Z,1.90
2023-01-21T16:51:52.282Z,1.90
2023-01-21T16:54:25.997Z,1.90
2023-01-21T16:57:01.619Z,1.90
2023-01-21T16:59:44.570Z,1.90
2023-01-21T17:02:28.384Z,1.90
2023-01-21T17:04:57.706Z,1.90
2023-01-21T17:07:41.867Z,1.90
2023-01-21T17:10:39.797Z,1.90
2023-01-21T17:13:13.869Z,1.90
2023-01-21T17:15:43.131Z,1.90
2023-01-21T17:18:21.909Z,1.90
2023-01-21T17:20:53.799Z,1.90
2023-01-21T17:23:31.319Z,1.90
2023-01-21T17:26:27.208Z,1.90
2023-01-21T17:28:57.978Z,1.90
2023-01-21T17:31:30.317Z,1.90
2023-01-21T17:34:17.234Z,1.90
2023-01-21T17:36:46.391Z,1.90
2023-01-21T17:39:13.707Z,1.90
2023-01-21T17:41:42.978Z,1.90
2023-01-21T17:44:24.063Z,1.90
2023-01-21T17:46:54.390Z,1.90
2023-01-21T17:49:25.315Z,1.90
2023-01-21T17:51:54.325Z,1.90
2023-01-21T17:54:24.494Z,1.90
2023-01-21T17:56:56.576Z,1.90
2023-01-21T17:59:35.255Z,1.90
2023-01-21T18:02:04.377Z,2.00
2023-01-21T18:04:31.311Z,1.90
2023-01-21T18:06:58.528Z,2.00
2023-01-21T18:09:25.795Z,2.00
2023-01-21T18:11:54.420Z,2.00
2023-01-21T18:14:23.719Z,2.00
2023-01-21T18:16:53.034Z,2.00
2023-01-21T18:19:30.439Z,2.00
2023-01-21T18:21:58.166Z,2.00
2023-01-21T18:24:25.609Z,2.00
2023-01-21T18:26:52.990Z,2.00
2023-01-21T18:29:21.825Z,2.00
2023-01-21T18:31:51.233Z,2.00
2023-01-21T18:34:18.204Z,2.00
2023-01-21T18:36:45.312Z,2.00
2023-01-21T18:39:16.436Z,2.00
2023-01-21T18:41:43.508Z,2.00
2023-01-21T18:44:10.469Z,2.00
2023-01-21T18:46:41.982Z,1.90
2023-01-21T18:49:19.760Z,2.00
2023-01-21T18:51:47.277Z,2.00
2023-01-21T18:54:15.883Z,2.00
2023-01-21T18:56:43.968Z,1.90
2023-01-21T18:59:18.368Z,2.00
2023-01-21T19:01:45.632Z,1.90
2023-01-21T19:04:15.867Z,2.00
2023-01-21T19:06:43.281Z,2.00
2023-01-21T19:09:26.064Z,2.00
2023-01-21T19:11:52.968Z,2.00
2023-01-21T19:14:19.812Z,2.00
2023-01-21T19:16:46.931Z,2.00
2023-01-21T19:19:21.197Z,2.00
2023-01-21T19:21:48.276Z,2.00
2023-01-21T19:24:15.315Z,2.00
2023-01-21T19:26:42.392Z,1.90
2023-01-21T19:29:15.245Z,2.00
2023-01-21T19:31:42.171Z,2.00
2023-01-21T19:34:10.635Z,1.90
2023-01-21T19:36:39.063Z,1.90
2023-01-21T19:39:16.013Z,1.90
2023-01-21T19:41:42.826Z,1.90
2023-01-21T19:44:09.562Z,1.90
2023-01-21T19:46:36.404Z,1.90
2023-01-21T19:49:12.561Z,1.90
2023-01-21T19:51:39.485Z,1.90
2023-01-21T19:54:06.383Z,1.90
2023-01-21T19:56:33.131Z,1.90
2023-01-21T19:59:00.345Z,1.90
2023-01-21T20:01:27.131Z,1.90
2023-01-21T20:04:00.176Z,2.00
2023-01-21T20:06:30.374Z,1.90
2023-01-21T20:08:59.642Z,1.90
2023-01-21T20:11:26.459Z,1.90
2023-01-21T20:13:53.225Z,1.90
2023-01-21T20:16:26.988Z,1.90
2023-01-21T20:18:55.361Z,1.90
2023-01-21T20:21:22.304Z,1.90
2023-01-21T20:23:49.180Z,1.90
2023-01-21T20:26:24.476Z,1.90
2023-01-21T20:28:54.512Z,1.90
2023-01-21T20:31:21.719Z,1.90
2023-01-21T20:33:48.702Z,1.90
2023-01-21T20:36:26.244Z,1.90
2023-01-21T20:38:54.222Z,1.90
2023-01-21T20:41:21.170Z,1.90
2023-01-21T20:43:49.157Z,1.90
2023-01-21T20:46:19.824Z,1.90
2023-01-21T20:48:47.035Z,1.90
2023-01-21T20:51:14.096Z,1.90
2023-01-21T20:53:43.282Z,1.90
2023-01-21T20:56:42.656Z,1.90
2023-01-21T20:59:09.992Z,1.90
2023-01-21T21:01:39.454Z,1.90
2023-01-21T21:04:06.582Z,1.90
2023-01-21T21:06:33.594Z,1.90
2023-01-21T21:09:00.420Z,1.90
2023-01-21T21:11:27.380Z,1.90
2023-01-21T21:13:54.154Z,1.90
2023-01-21T21:16:22.564Z,1.90
2023-01-21T21:18:50.092Z,1.90
2023-01-21T21:21:17.877Z,1.80
2023-01-21T21:23:46.588Z,1.80
2023-01-21T21:26:33.201Z,1.80
2023-01-21T21:29:00.228Z,1.80
2023-01-21T21:31:31.880Z,1.80
2023-01-21T21:33:58.783Z,1.80
2023-01-21T21:36:25.598Z,1.80
2023-01-21T21:38:55.731Z,1.80
2023-01-21T21:41:43.367Z,1.80
2023-01-21T21:44:11.718Z,1.80
2023-01-21T21:46:57.623Z,1.80
2023-01-21T21:49:24.811Z,1.80
2023-01-21T21:51:51.647Z,1.80
2023-01-21T21:54:18.700Z,1.80
2023-01-21T21:56:46.466Z,1.80
2023-01-21T21:59:14.150Z,1.80
2023-01-21T22:01:42.979Z,1.80
2023-01-21T22:04:10.196Z,1.80
2023-01-21T22:06:37.117Z,1.80
2023-01-21T22:09:04.370Z,1.80
2023-01-21T22:11:31.380Z,1.80
2023-01-21T22:13:58.551Z,1.80
2023-01-21T22:16:27.821Z,1.80
2023-01-21T22:18:55.243Z,1.80
2023-01-21T22:21:27.328Z,1.80
2023-01-21T22:23:55.034Z,1.80
2023-01-21T22:26:23.934Z,1.90
2023-01-21T22:28:51.370Z,1.80
2023-01-21T22:31:27.072Z,1.80
2023-01-21T22:33:54.636Z,1.80
2023-01-21T22:36:23.632Z,1.80
2023-01-21T22:38:50.781Z,1.80
2023-01-21T22:41:20.523Z,1.80
2023-01-21T22:43:48.937Z,1.80
2023-01-21T22:46:19.093Z,1.80
2023-01-21T22:48:46.783Z,1.80
2023-01-21T22:51:15.801Z,1.80
2023-01-21T22:53:45.879Z,1.80
2023-01-21T22:56:14.812Z,1.80
2023-01-21T22:58:41.905Z,1.80
2023-01-21T23:01:19.594Z,1.80
2023-01-21T23:03:46.425Z,1.80
2023-01-21T23:06:13.273Z,1.80
2023-01-21T23:08:40.029Z,1.80
2023-01-21T23:11:08.314Z,1.80
2023-01-21T23:13:35.349Z,1.80
2023-01-21T23:16:02.377Z,1.80
2023-01-21T23:18:29.883Z,1.80
2023-01-21T23:20:57.024Z,1.80
2023-01-21T23:23:24.823Z,1.80
2023-01-21T23:25:52.027Z,1.80
2023-01-21T23:28:18.885Z,1.80
2023-01-21T23:30:46.052Z,1.80
2023-01-21T23:33:13.508Z,1.80
2023-01-21T23:35:40.258Z,1.80
2023-01-21T23:38:07.037Z,1.80
2023-01-21T23:40:33.806Z,1.80
2023-01-21T23:43:00.633Z,1.80
2023-01-21T23:45:27.483Z,1.80
2023-01-21T23:47:55.011Z,1.80
2023-01-21T23:50:21.892Z,1.80
2023-01-21T23:52:48.604Z,1.80
2023-01-21T23:55:15.405Z,1.80
2023-01-21T23:57:42.182Z,1.80
